Time;durP1;ratioP1;P1;durP2;ratioP2;P2;SDS_P1;SDS_P2;PMS_P1;PMS_P2;Temp;Humidity;BMP_temperature;BMP_pressure;BME280_temperature;BME280_humidity;BME280_pressure;Samples;Min_cycle;Max_cycle;Signal;HPM_P1;HPM_P2
2023/03/30 00:00:54;;;;;;;;;2.00;2.00;;;;;;;;5050142;28;8818;-87
2023/03/30 00:03:23;;;;;;;;;2.75;2.25;;;;;;;;5050343;28;8870;-87
2023/03/30 00:05:51;;;;;;;;;2.50;2.50;;;;;;;;5050644;28;8951;-87
2023/03/30 00:08:19;;;;;;;;;2.50;1.25;;;;;;;;5051285;28;8846;-86
2023/03/30 00:10:46;;;;;;;;;1.00;1.00;;;;;;;;5041446;28;8831;-88
2023/03/30 00:13:14;;;;;;;;;1.00;1.00;;;;;;;;5050240;28;8893;-87
2023/03/30 00:15:41;;;;;;;;;2.50;1.00;;;;;;;;5052497;28;8860;-88
2023/03/30 00:18:09;;;;;;;;;1.00;1.00;;;;;;;;5053920;28;8912;-87
2023/03/30 00:20:41;;;;;;;;;2.00;2.00;;;;;;;;5053060;28;8866;-87
2023/03/30 00:23:09;;;;;;;;;1.25;1.25;;;;;;;;5050720;28;8981;-88
2023/03/30 00:25:39;;;;;;;;;3.00;3.00;;;;;;;;5049790;28;8859;-85
2023/03/30 00:28:07;;;;;;;;;2.00;2.00;;;;;;;;5043126;28;8847;-85
2023/03/30 00:30:35;;;;;;;;;2.00;2.00;;;;;;;;5050335;28;8759;-87
2023/03/30 00:33:05;;;;;;;;;3.00;3.00;;;;;;;;5046264;28;8854;-88
2023/03/30 00:35:36;;;;;;;;;2.25;2.25;;;;;;;;5050056;28;8928;-87
2023/03/30 00:38:05;;;;;;;;;1.50;1.50;;;;;;;;5050332;28;8858;-87
2023/03/30 00:40:33;;;;;;;;;2.75;2.75;;;;;;;;5050342;28;8956;-87
2023/03/30 00:43:02;;;;;;;;;3.00;3.00;;;;;;;;5049880;28;8997;-86
2023/03/30 00:45:30;;;;;;;;;2.50;2.50;;;;;;;;5049554;28;8943;-87
2023/03/30 00:48:01;;;;;;;;;3.25;2.25;;;;;;;;5049779;28;8865;-85
2023/03/30 00:50:34;;;;;;;;;5.25;2.50;;;;;;;;5049386;28;8839;-87
2023/03/30 00:53:07;;;;;;;;;4.50;3.00;;;;;;;;5047475;28;8863;-87
2023/03/30 00:55:36;;;;;;;;;2.75;2.75;;;;;;;;5049643;28;8850;-86
2023/03/30 00:58:05;;;;;;;;;2.25;2.25;;;;;;;;5049329;28;8846;-87
2023/03/30 01:00:37;;;;;;;;;2.00;2.00;;;;;;;;5045974;28;8771;-85
2023/03/30 01:03:08;;;;;;;;;3.50;3.50;;;;;;;;5053522;28;8865;-87
2023/03/30 01:05:37;;;;;;;;;5.00;3.00;;;;;;;;5050961;28;8842;-87
2023/03/30 01:08:06;;;;;;;;;2.75;2.75;;;;;;;;5054429;28;9698;-85
2023/03/30 01:10:35;;;;;;;;;3.00;3.00;;;;;;;;5053888;28;8867;-85
2023/03/30 01:13:03;;;;;;;;;2.50;2.50;;;;;;;;5054186;28;8851;-88
2023/03/30 01:15:34;;;;;;;;;2.75;2.75;;;;;;;;5053019;28;8858;-87
2023/03/30 01:18:22;;;;;;;;;5.00;3.25;;;;;;;;5053468;28;8874;-88
2023/03/30 01:21:14;;;;;;;;;2.50;2.50;;;;;;;;5051686;28;8867;-86
2023/03/30 01:24:26;;;;;;;;;2.25;2.25;;;;;;;;5052737;28;8876;-87
2023/03/30 01:26:58;;;;;;;;;2.25;2.25;;;;;;;;5035092;28;8858;-86
2023/03/30 01:29:49;;;;;;;;;2.50;2.50;;;;;;;;5039285;28;8942;-85
2023/03/30 01:32:42;;;;;;;;;2.00;2.00;;;;;;;;5039987;28;8818;-87
2023/03/30 01:35:56;;;;;;;;;2.75;2.00;;;;;;;;5044149;28;8862;-86
2023/03/30 01:38:53;;;;;;;;;1.00;1.00;;;;;;;;5044016;28;8939;-86
2023/03/30 01:41:28;;;;;;;;;3.00;3.00;;;;;;;;5050114;28;8845;-86
2023/03/30 01:44:00;;;;;;;;;2.00;2.00;;;;;;;;5048221;28;8920;-87
2023/03/30 01:46:30;;;;;;;;;3.00;1.75;;;;;;;;5056432;28;8988;-86
2023/03/30 01:49:02;;;;;;;;;0.00;0.00;;;;;;;;5045309;28;8884;-84
2023/03/30 01:51:32;;;;;;;;;1.75;1.75;;;;;;;;5044482;28;8850;-87
2023/03/30 01:54:06;;;;;;;;;2.00;1.75;;;;;;;;5054303;28;8949;-86
2023/03/30 01:56:38;;;;;;;;;3.00;1.75;;;;;;;;5045913;28;8880;-87
2023/03/30 01:59:10;;;;;;;;;1.00;1.00;;;;;;;;5038824;28;8856;-87
2023/03/30 02:01:40;;;;;;;;;1.00;1.00;;;;;;;;5049763;28;8774;-85
2023/03/30 02:04:09;;;;;;;;;1.00;1.00;;;;;;;;5049956;28;8849;-90
2023/03/30 02:06:41;;;;;;;;;0.50;0.50;;;;;;;;5047625;28;8862;-88
2023/03/30 02:09:15;;;;;;;;;3.25;1.50;;;;;;;;5049382;28;8862;-89
2023/03/30 02:11:46;;;;;;;;;1.50;1.50;;;;;;;;5053167;28;8880;-88
2023/03/30 02:14:16;;;;;;;;;0.75;0.75;;;;;;;;5053327;28;8893;-89
2023/03/30 02:16:47;;;;;;;;;1.75;1.75;;;;;;;;5053910;28;8917;-88
2023/03/30 02:19:15;;;;;;;;;2.50;1.00;;;;;;;;5051980;28;8867;-88
2023/03/30 02:21:43;;;;;;;;;1.75;1.00;;;;;;;;5052223;28;8857;-88
2023/03/30 02:24:17;;;;;;;;;1.00;1.00;;;;;;;;5056081;28;8854;-87
2023/03/30 02:26:47;;;;;;;;;1.00;1.00;;;;;;;;5047106;28;8874;-88
2023/03/30 02:29:15;;;;;;;;;2.00;1.00;;;;;;;;5054914;28;8854;-87
2023/03/30 02:31:43;;;;;;;;;2.50;1.00;;;;;;;;5050822;28;8916;-87
2023/03/30 02:34:16;;;;;;;;;2.25;1.00;;;;;;;;5051287;28;8855;-88
2023/03/30 02:37:02;;;;;;;;;1.00;1.00;;;;;;;;5050258;28;8871;-89
2023/03/30 02:39:39;;;;;;;;;0.50;0.50;;;;;;;;5043586;28;8867;-86
2023/03/30 02:42:26;;;;;;;;;0.25;0.25;;;;;;;;5044411;28;8854;-88
2023/03/30 02:45:03;;;;;;;;;1.00;1.00;;;;;;;;5040778;28;8862;-87
2023/03/30 02:47:37;;;;;;;;;1.00;1.00;;;;;;;;5043003;28;8889;-86
2023/03/30 02:50:10;;;;;;;;;1.75;1.75;;;;;;;;5043291;28;8908;-87
2023/03/30 02:52:44;;;;;;;;;3.25;1.00;;;;;;;;5050871;28;8936;-85
2023/03/30 02:55:17;;;;;;;;;2.75;1.00;;;;;;;;5035929;28;8852;-85
2023/03/30 02:57:57;;;;;;;;;1.00;1.00;;;;;;;;5051641;28;8859;-86
2023/03/30 03:00:31;;;;;;;;;1.00;1.00;;;;;;;;5051532;28;8846;-86
2023/03/30 03:03:04;;;;;;;;;1.00;1.00;;;;;;;;5051954;28;8851;-86
2023/03/30 03:05:32;;;;;;;;;3.25;2.00;;;;;;;;5031286;28;9011;-85
2023/03/30 03:08:00;;;;;;;;;1.00;1.00;;;;;;;;5049262;28;8882;-85
2023/03/30 03:10:28;;;;;;;;;2.00;0.75;;;;;;;;5051765;28;8866;-88
2023/03/30 03:12:57;;;;;;;;;1.50;1.50;;;;;;;;5050978;28;8854;-88
2023/03/30 03:15:24;;;;;;;;;1.00;1.00;;;;;;;;5048569;28;8867;-87
2023/03/30 03:17:51;;;;;;;;;1.25;1.25;;;;;;;;5046516;28;8879;-88
2023/03/30 03:20:19;;;;;;;;;0.75;0.75;;;;;;;;5051007;28;8927;-87
2023/03/30 03:22:47;;;;;;;;;1.00;1.00;;;;;;;;5050759;28;8858;-88
2023/03/30 03:25:14;;;;;;;;;1.00;1.00;;;;;;;;5040560;28;8879;-87
2023/03/30 03:27:42;;;;;;;;;2.00;2.00;;;;;;;;5047899;28;8855;-85
2023/03/30 03:30:12;;;;;;;;;1.75;1.75;;;;;;;;5039206;28;8863;-88
2023/03/30 03:32:40;;;;;;;;;2.75;2.00;;;;;;;;5048941;28;8852;-89
2023/03/30 03:35:08;;;;;;;;;1.00;1.00;;;;;;;;5052079;28;8938;-89
2023/03/30 03:37:38;;;;;;;;;1.25;1.25;;;;;;;;5046795;28;8860;-89
2023/03/30 03:40:07;;;;;;;;;1.50;1.50;;;;;;;;5052147;28;8880;-87
2023/03/30 03:42:34;;;;;;;;;1.25;1.25;;;;;;;;5065488;28;8882;-87
2023/03/30 03:45:02;;;;;;;;;1.00;1.00;;;;;;;;5054509;28;8878;-86
2023/03/30 03:47:32;;;;;;;;;1.50;1.50;;;;;;;;5057667;28;9018;-85
2023/03/30 03:50:02;;;;;;;;;1.25;1.25;;;;;;;;5046796;28;8850;-84
2023/03/30 03:52:29;;;;;;;;;4.00;1.00;;;;;;;;5040014;28;8862;-83
2023/03/30 03:54:57;;;;;;;;;2.00;2.00;;;;;;;;5047663;28;8846;-84
2023/03/30 03:57:24;;;;;;;;;1.25;1.00;;;;;;;;5047712;28;8878;-86
2023/03/30 03:59:53;;;;;;;;;0.00;0.00;;;;;;;;5043681;28;8936;-85
2023/03/30 04:02:21;;;;;;;;;2.33;1.00;;;;;;;;5048958;28;8791;-84
2023/03/30 04:04:50;;;;;;;;;1.00;1.00;;;;;;;;5048626;28;8967;-85
2023/03/30 04:07:17;;;;;;;;;2.00;2.00;;;;;;;;5046130;28;9565;-84
2023/03/30 04:09:45;;;;;;;;;1.25;0.00;;;;;;;;5049579;28;8959;-88
2023/03/30 04:12:15;;;;;;;;;1.00;1.00;;;;;;;;5046462;28;8851;-84
2023/03/30 04:14:42;;;;;;;;;1.33;1.33;;;;;;;;5049360;28;8901;-82
2023/03/30 04:17:10;;;;;;;;;1.00;1.00;;;;;;;;5049800;28;9709;-85
2023/03/30 04:19:37;;;;;;;;;2.00;0.67;;;;;;;;5052236;28;8936;-86
2023/03/30 04:22:06;;;;;;;;;1.00;1.00;;;;;;;;5038048;28;8942;-86
2023/03/30 04:24:34;;;;;;;;;2.00;0.25;;;;;;;;5050107;28;9612;-86
2023/03/30 04:27:04;;;;;;;;;1.75;1.75;;;;;;;;5050716;28;9683;-87
2023/03/30 04:29:31;;;;;;;;;1.75;1.75;;;;;;;;5050583;28;8989;-87
2023/03/30 04:32:01;;;;;;;;;1.00;1.00;;;;;;;;5031410;28;8788;-87
2023/03/30 04:34:29;;;;;;;;;2.67;1.00;;;;;;;;5044394;28;8958;-88
2023/03/30 04:36:58;;;;;;;;;0.00;0.00;;;;;;;;5048625;28;8937;-88
2023/03/30 04:39:28;;;;;;;;;0.33;0.33;;;;;;;;5049039;28;8855;-84
2023/03/30 04:41:56;;;;;;;;;1.00;1.00;;;;;;;;5040784;28;8943;-84
2023/03/30 04:44:23;;;;;;;;;1.67;1.67;;;;;;;;5046090;28;9697;-84
2023/03/30 04:46:51;;;;;;;;;1.00;1.00;;;;;;;;5048835;28;8985;-83
2023/03/30 04:49:18;;;;;;;;;1.00;1.00;;;;;;;;5048256;28;8940;-84
2023/03/30 04:51:46;;;;;;;;;0.67;0.67;;;;;;;;5049640;28;8957;-87
2023/03/30 04:54:13;;;;;;;;;1.00;1.00;;;;;;;;5049675;28;8933;-87
2023/03/30 04:56:42;;;;;;;;;2.50;1.50;;;;;;;;5021806;28;8865;-88
2023/03/30 04:59:10;;;;;;;;;0.00;0.00;;;;;;;;5034984;28;8880;-88
2023/03/30 05:01:37;;;;;;;;;3.50;1.00;;;;;;;;5046356;28;8918;-87
2023/03/30 05:04:04;;;;;;;;;1.25;0.50;;;;;;;;5048111;28;8866;-86
2023/03/30 05:06:32;;;;;;;;;1.00;1.00;;;;;;;;5048580;28;8870;-86
2023/03/30 05:08:59;;;;;;;;;3.00;1.00;;;;;;;;5034888;28;8956;-87
2023/03/30 05:11:27;;;;;;;;;2.00;2.00;;;;;;;;5048498;28;8855;-88
2023/03/30 05:13:55;;;;;;;;;0.50;0.50;;;;;;;;5049032;28;8945;-88
2023/03/30 05:16:23;;;;;;;;;1.00;1.00;;;;;;;;5047713;28;8834;-87
2023/03/30 05:18:50;;;;;;;;;0.00;0.00;;;;;;;;5048630;28;8954;-88
2023/03/30 05:21:18;;;;;;;;;0.00;0.00;;;;;;;;5049229;28;8863;-87
2023/03/30 05:23:45;;;;;;;;;1.00;1.00;;;;;;;;5048987;28;8898;-87
2023/03/30 05:26:13;;;;;;;;;0.25;0.25;;;;;;;;5046150;28;8857;-78
2023/03/30 05:28:41;;;;;;;;;2.25;2.00;;;;;;;;5040920;28;9744;-75
2023/03/30 05:31:10;;;;;;;;;2.00;1.00;;;;;;;;5047550;28;8807;-72
2023/03/30 05:33:40;;;;;;;;;0.00;0.00;;;;;;;;5048793;28;8989;-77
2023/03/30 05:36:08;;;;;;;;;2.00;2.00;;;;;;;;5052668;28;8870;-75
2023/03/30 05:38:36;;;;;;;;;1.00;1.00;;;;;;;;5045752;28;8942;-75
2023/03/30 05:41:05;;;;;;;;;1.00;1.00;;;;;;;;5045078;28;8901;-78
2023/03/30 05:43:32;;;;;;;;;1.00;1.00;;;;;;;;5047574;28;8889;-76
2023/03/30 05:46:01;;;;;;;;;2.00;0.25;;;;;;;;5048235;28;8842;-78
2023/03/30 05:48:30;;;;;;;;;1.00;1.00;;;;;;;;5045517;28;8865;-79
2023/03/30 05:50:57;;;;;;;;;1.25;1.25;;;;;;;;5035886;28;8981;-75
2023/03/30 05:53:24;;;;;;;;;0.50;0.50;;;;;;;;5051053;28;8842;-74
2023/03/30 05:55:52;;;;;;;;;1.25;1.25;;;;;;;;5050813;28;8855;-86
2023/03/30 05:58:19;;;;;;;;;1.00;1.00;;;;;;;;5050768;28;8835;-78
2023/03/30 06:00:48;;;;;;;;;1.00;1.00;;;;;;;;5047379;28;8838;-73
2023/03/30 06:03:15;;;;;;;;;3.00;1.00;;;;;;;;5050283;28;8976;-77
2023/03/30 06:05:56;;;;;;;;;2.33;1.00;;;;;;;;5051275;28;8848;-73
2023/03/30 06:08:25;;;;;;;;;1.00;1.00;;;;;;;;5049673;28;9113;-75
2023/03/30 06:10:53;;;;;;;;;3.00;1.67;;;;;;;;5042357;28;8856;-74
2023/03/30 06:13:21;;;;;;;;;2.75;1.50;;;;;;;;5045639;28;9053;-78
2023/03/30 06:15:48;;;;;;;;;0.75;0.75;;;;;;;;5050691;28;8858;-72
2023/03/30 06:18:15;;;;;;;;;2.25;2.00;;;;;;;;5049663;28;8847;-74
2023/03/30 06:20:43;;;;;;;;;1.00;1.00;;;;;;;;5050480;28;8866;-72
2023/03/30 06:23:13;;;;;;;;;2.25;2.25;;;;;;;;5049672;28;8936;-78
2023/03/30 06:25:45;;;;;;;;;3.00;2.00;;;;;;;;5050364;28;9699;-78
2023/03/30 06:28:12;;;;;;;;;3.00;1.00;;;;;;;;5050242;28;8988;-80
2023/03/30 06:30:41;;;;;;;;;1.00;1.00;;;;;;;;5049868;28;8974;-77
2023/03/30 06:33:08;;;;;;;;;2.00;2.00;;;;;;;;5050000;28;9096;-72
2023/03/30 06:35:35;;;;;;;;;2.00;0.75;;;;;;;;5050076;28;9012;-74
2023/03/30 06:38:03;;;;;;;;;2.00;1.00;;;;;;;;5049620;28;8870;-74
2023/03/30 06:40:31;;;;;;;;;2.25;2.25;;;;;;;;5049507;28;8866;-73
2023/03/30 06:42:59;;;;;;;;;3.33;0.67;;;;;;;;5037474;28;8847;-78
2023/03/30 06:45:26;;;;;;;;;1.00;1.00;;;;;;;;5049456;28;9038;-76
2023/03/30 06:47:53;;;;;;;;;2.67;1.00;;;;;;;;5044154;28;8859;-74
2023/03/30 06:50:21;;;;;;;;;0.00;0.00;;;;;;;;5049381;28;8924;-78
2023/03/30 06:52:48;;;;;;;;;2.00;2.00;;;;;;;;5049601;28;8859;-75
2023/03/30 06:55:18;;;;;;;;;3.00;3.00;;;;;;;;5049518;28;8922;-76
2023/03/30 06:57:47;;;;;;;;;4.33;1.00;;;;;;;;5049073;28;9022;-75
2023/03/30 07:00:15;;;;;;;;;1.25;1.25;;;;;;;;5044562;28;8998;-72
2023/03/30 07:02:43;;;;;;;;;2.33;2.33;;;;;;;;5049624;28;8945;-76
2023/03/30 07:05:11;;;;;;;;;3.67;3.00;;;;;;;;5049149;28;9036;-74
2023/03/30 07:07:39;;;;;;;;;1.67;1.67;;;;;;;;5049675;28;9005;-76
2023/03/30 07:10:09;;;;;;;;;4.00;2.00;;;;;;;;5049218;28;9053;-76
2023/03/30 07:12:37;;;;;;;;;1.33;1.33;;;;;;;;5049653;28;9032;-75
2023/03/30 07:15:10;;;;;;;;;1.00;1.00;;;;;;;;5049449;28;9829;-75
2023/03/30 07:17:37;;;;;;;;;2.67;1.67;;;;;;;;5049227;28;8870;-76
2023/03/30 07:20:09;;;;;;;;;1.00;1.00;;;;;;;;5049111;28;8952;-75
2023/03/30 07:22:37;;;;;;;;;1.00;1.00;;;;;;;;5049501;28;9115;-76
2023/03/30 07:25:05;;;;;;;;;2.00;2.00;;;;;;;;5046788;28;9084;-76
2023/03/30 07:27:32;;;;;;;;;3.67;2.00;;;;;;;;5050620;28;9032;-76
2023/03/30 07:30:00;;;;;;;;;3.00;1.00;;;;;;;;5050374;28;8942;-75
2023/03/30 07:32:28;;;;;;;;;2.00;2.00;;;;;;;;5048440;28;9015;-76
2023/03/30 07:34:56;;;;;;;;;0.00;0.00;;;;;;;;5042403;28;9767;-76
2023/03/30 07:37:23;;;;;;;;;1.33;1.33;;;;;;;;5042786;28;9435;-77
2023/03/30 07:39:51;;;;;;;;;2.00;2.00;;;;;;;;5049332;28;8920;-74
2023/03/30 07:42:18;;;;;;;;;1.67;1.00;;;;;;;;5048815;28;8865;-77
2023/03/30 07:44:45;;;;;;;;;2.50;1.00;;;;;;;;5049666;28;8949;-74
2023/03/30 07:47:15;;;;;;;;;2.00;2.00;;;;;;;;5044707;28;8868;-75
2023/03/30 07:49:44;;;;;;;;;2.00;2.00;;;;;;;;5051846;28;8926;-75
2023/03/30 07:52:11;;;;;;;;;2.00;1.00;;;;;;;;5050575;28;8861;-74
2023/03/30 07:54:42;;;;;;;;;1.50;1.50;;;;;;;;5050882;28;8846;-73
2023/03/30 07:57:10;;;;;;;;;2.33;2.00;;;;;;;;5049629;28;8842;-81
2023/03/30 07:59:40;;;;;;;;;1.00;1.00;;;;;;;;5049148;28;9067;-78
2023/03/30 08:02:11;;;;;;;;;1.00;1.00;;;;;;;;5046061;28;9635;-76
2023/03/30 08:04:38;;;;;;;;;3.25;1.75;;;;;;;;5048778;28;9580;-74
2023/03/30 08:07:06;;;;;;;;;1.00;1.00;;;;;;;;5036141;28;8985;-77
2023/03/30 08:09:34;;;;;;;;;2.50;1.00;;;;;;;;5048419;28;8858;-73
2023/03/30 08:12:02;;;;;;;;;1.00;1.00;;;;;;;;5048301;28;8865;-74
2023/03/30 08:14:29;;;;;;;;;1.00;1.00;;;;;;;;5048772;28;8889;-77
2023/03/30 08:17:01;;;;;;;;;1.75;1.75;;;;;;;;5047765;28;8843;-76
2023/03/30 08:19:28;;;;;;;;;1.00;1.00;;;;;;;;5048445;28;8834;-74
2023/03/30 08:21:56;;;;;;;;;3.00;2.00;;;;;;;;5047674;28;8839;-74
2023/03/30 08:24:25;;;;;;;;;4.00;1.67;;;;;;;;5047800;28;8850;-73
2023/03/30 08:26:52;;;;;;;;;3.25;2.00;;;;;;;;5047560;28;8932;-74
2023/03/30 08:29:19;;;;;;;;;2.00;2.00;;;;;;;;5047352;28;8955;-73
2023/03/30 08:31:47;;;;;;;;;4.00;3.00;;;;;;;;5046632;28;8969;-74
2023/03/30 08:34:14;;;;;;;;;3.25;1.00;;;;;;;;5047286;28;8954;-73
2023/03/30 08:36:44;;;;;;;;;1.00;1.00;;;;;;;;5036221;28;8847;-74
2023/03/30 08:39:11;;;;;;;;;1.00;1.00;;;;;;;;5047504;28;9037;-73
2023/03/30 08:42:00;;;;;;;;;1.00;1.00;;;;;;;;5047721;28;8862;-75
2023/03/30 08:44:33;;;;;;;;;1.25;1.25;;;;;;;;5046988;28;8916;-74
2023/03/30 08:47:02;;;;;;;;;4.00;2.33;;;;;;;;5047867;28;8874;-73
2023/03/30 08:49:36;;;;;;;;;2.00;2.00;;;;;;;;5045822;28;8962;-73
2023/03/30 08:52:05;;;;;;;;;1.25;1.00;;;;;;;;5047412;28;8877;-75
2023/03/30 08:54:37;;;;;;;;;1.00;1.00;;;;;;;;5047553;28;8916;-74
2023/03/30 08:57:12;;;;;;;;;2.50;2.25;;;;;;;;5047387;28;8854;-77
2023/03/30 08:59:44;;;;;;;;;1.00;1.00;;;;;;;;5047551;28;8989;-77
2023/03/30 09:02:20;;;;;;;;;1.50;1.00;;;;;;;;5044574;28;8806;-77
2023/03/30 09:04:57;;;;;;;;;2.00;2.00;;;;;;;;5047418;28;8989;-78
2023/03/30 09:07:26;;;;;;;;;1.25;1.25;;;;;;;;5046975;28;8934;-78
2023/03/30 09:09:55;;;;;;;;;1.00;1.00;;;;;;;;5046708;28;8879;-77
2023/03/30 09:12:33;;;;;;;;;1.00;1.00;;;;;;;;5046372;28;8862;-76
2023/03/30 09:15:04;;;;;;;;;3.00;1.75;;;;;;;;5034032;28;8910;-78
2023/03/30 09:17:33;;;;;;;;;2.25;0.25;;;;;;;;5045605;28;8868;-77
2023/03/30 09:20:06;;;;;;;;;2.25;1.50;;;;;;;;5047534;28;8883;-77
2023/03/30 09:22:38;;;;;;;;;1.00;1.00;;;;;;;;5049140;28;8874;-79
2023/03/30 09:25:17;;;;;;;;;1.00;1.00;;;;;;;;5048424;28;8985;-78
2023/03/30 09:27:54;;;;;;;;;3.00;0.75;;;;;;;;5037933;28;8865;-75
2023/03/30 09:30:23;;;;;;;;;2.50;1.00;;;;;;;;5050145;28;8863;-77
2023/03/30 09:32:59;;;;;;;;;1.25;1.25;;;;;;;;5050220;28;8870;-73
2023/03/30 09:35:33;;;;;;;;;3.50;1.00;;;;;;;;5051005;28;8875;-77
2023/03/30 09:38:02;;;;;;;;;3.25;2.00;;;;;;;;5050880;28;8996;-76
2023/03/30 09:40:38;;;;;;;;;2.00;1.75;;;;;;;;5047905;28;8840;-75
2023/03/30 09:43:13;;;;;;;;;2.00;2.00;;;;;;;;5043059;28;8850;-78
2023/03/30 09:45:41;;;;;;;;;2.75;1.00;;;;;;;;5051360;28;8839;-75
2023/03/30 09:48:09;;;;;;;;;0.75;0.75;;;;;;;;5051084;28;9009;-74
2023/03/30 09:50:39;;;;;;;;;2.00;0.00;;;;;;;;5051270;28;8858;-78
2023/03/30 09:53:17;;;;;;;;;1.50;1.00;;;;;;;;5051654;28;8889;-74
2023/03/30 09:55:57;;;;;;;;;3.25;1.25;;;;;;;;5049902;28;8858;-77
2023/03/30 09:58:29;;;;;;;;;7.50;1.00;;;;;;;;5050525;28;8846;-77
2023/03/30 10:01:07;;;;;;;;;1.00;1.00;;;;;;;;5037548;28;8779;-77
2023/03/30 10:03:37;;;;;;;;;0.50;0.25;;;;;;;;5050084;28;8823;-78
2023/03/30 10:06:06;;;;;;;;;1.00;1.00;;;;;;;;5050255;28;8846;-76
2023/03/30 10:08:36;;;;;;;;;0.00;0.00;;;;;;;;5046722;28;8880;-77
2023/03/30 10:11:05;;;;;;;;;1.00;1.00;;;;;;;;5050039;28;8846;-75
2023/03/30 10:13:36;;;;;;;;;1.00;1.00;;;;;;;;5049645;28;8846;-76
2023/03/30 10:16:09;;;;;;;;;4.00;1.00;;;;;;;;5049858;28;9644;-78
2023/03/30 10:18:41;;;;;;;;;1.75;1.00;;;;;;;;5052264;28;9404;-74
2023/03/30 10:21:17;;;;;;;;;1.00;1.00;;;;;;;;5046235;28;8852;-73
2023/03/30 10:23:46;;;;;;;;;2.00;0.25;;;;;;;;5041608;28;8854;-73
2023/03/30 10:26:17;;;;;;;;;1.00;1.00;;;;;;;;5049220;28;8855;-73
2023/03/30 10:28:53;;;;;;;;;4.25;1.00;;;;;;;;5050074;28;8846;-74
2023/03/30 10:31:22;;;;;;;;;4.50;0.25;;;;;;;;5044471;28;8806;-74
2023/03/30 10:33:49;;;;;;;;;0.00;0.00;;;;;;;;5047871;28;8976;-81
2023/03/30 10:36:18;;;;;;;;;2.25;1.75;;;;;;;;5047974;28;8928;-82
2023/03/30 10:38:46;;;;;;;;;4.25;1.00;;;;;;;;5041798;28;8940;-80
2023/03/30 10:41:16;;;;;;;;;3.00;1.75;;;;;;;;5051061;28;8870;-81
2023/03/30 10:43:45;;;;;;;;;1.50;1.00;;;;;;;;5041153;28;8836;-79
2023/03/30 10:46:15;;;;;;;;;4.50;1.00;;;;;;;;5047697;28;8963;-79
2023/03/30 10:49:04;;;;;;;;;1.75;1.75;;;;;;;;5048064;28;8976;-82
2023/03/30 10:51:39;;;;;;;;;1.00;1.00;;;;;;;;5043228;28;8835;-81
2023/03/30 10:54:13;;;;;;;;;4.50;1.75;;;;;;;;5048215;28;8862;-76
2023/03/30 10:56:45;;;;;;;;;7.00;1.00;;;;;;;;5048905;28;8863;-80
2023/03/30 10:59:44;;;;;;;;;3.50;3.25;;;;;;;;5047809;28;8842;-82
2023/03/30 11:02:33;;;;;;;;;3.25;2.25;;;;;;;;5045714;28;8917;-78
2023/03/30 11:05:08;;;;;;;;;2.00;2.00;;;;;;;;5051383;28;8857;-79
2023/03/30 11:07:40;;;;;;;;;1.00;1.00;;;;;;;;5052052;28;8861;-80
2023/03/30 11:10:14;;;;;;;;;4.00;1.00;;;;;;;;5052997;28;9590;-78
2023/03/30 11:12:46;;;;;;;;;0.25;0.25;;;;;;;;5041516;28;8842;-76
2023/03/30 11:15:18;;;;;;;;;1.25;0.75;;;;;;;;5048496;28;8847;-78
2023/03/30 11:17:55;;;;;;;;;1.25;1.25;;;;;;;;5048854;28;8870;-73
2023/03/30 11:20:27;;;;;;;;;3.50;0.50;;;;;;;;5045787;28;8870;-74
2023/03/30 11:23:01;;;;;;;;;0.75;0.75;;;;;;;;5043329;28;8843;-75
2023/03/30 11:25:34;;;;;;;;;2.00;1.00;;;;;;;;5048307;28;8997;-74
2023/03/30 11:28:11;;;;;;;;;5.25;0.75;;;;;;;;5048642;28;8846;-78
2023/03/30 11:30:40;;;;;;;;;2.00;1.25;;;;;;;;5047771;28;8815;-80
2023/03/30 11:33:18;;;;;;;;;3.50;1.25;;;;;;;;5048434;28;8932;-80
2023/03/30 11:35:47;;;;;;;;;3.50;1.25;;;;;;;;5042453;28;9685;-78
2023/03/30 11:38:18;;;;;;;;;4.00;1.00;;;;;;;;5048683;28;8851;-79
2023/03/30 11:40:47;;;;;;;;;2.00;2.00;;;;;;;;5038796;28;9659;-80
2023/03/30 11:43:16;;;;;;;;;4.00;1.00;;;;;;;;5048528;28;9629;-81
2023/03/30 11:45:52;;;;;;;;;3.25;3.00;;;;;;;;5048628;28;8905;-80
2023/03/30 11:48:39;;;;;;;;;1.50;1.00;;;;;;;;5048243;28;8842;-77
2023/03/30 11:51:20;;;;;;;;;2.25;1.00;;;;;;;;5048335;28;8835;-80
2023/03/30 11:53:53;;;;;;;;;1.00;1.00;;;;;;;;5048472;28;9157;-79
2023/03/30 11:56:28;;;;;;;;;2.75;0.50;;;;;;;;5048512;28;8855;-78
2023/03/30 11:59:03;;;;;;;;;1.00;1.00;;;;;;;;5048351;28;8870;-82
2023/03/30 12:01:59;;;;;;;;;4.75;0.25;;;;;;;;5045229;28;8820;-77
2023/03/30 12:04:31;;;;;;;;;0.00;0.00;;;;;;;;5040898;28;8847;-79
2023/03/30 12:07:00;;;;;;;;;0.50;0.50;;;;;;;;5048442;28;8962;-79
2023/03/30 12:09:34;;;;;;;;;1.00;1.00;;;;;;;;5047974;28;8976;-78
2023/03/30 12:12:10;;;;;;;;;1.25;0.75;;;;;;;;5048286;28;9722;-79
2023/03/30 12:14:49;;;;;;;;;2.25;1.00;;;;;;;;5048848;28;8854;-78
2023/03/30 12:17:36;;;;;;;;;1.50;0.50;;;;;;;;5039588;28;9649;-82
2023/03/30 12:20:12;;;;;;;;;3.25;2.00;;;;;;;;5047805;28;9680;-81
2023/03/30 12:22:44;;;;;;;;;1.00;1.00;;;;;;;;5048554;28;9661;-79
2023/03/30 12:25:24;;;;;;;;;2.25;1.00;;;;;;;;5035176;28;8865;-80
2023/03/30 12:27:58;;;;;;;;;2.00;1.00;;;;;;;;5048096;28;9714;-80
2023/03/30 12:30:27;;;;;;;;;1.50;1.50;;;;;;;;5047108;28;8790;-75
2023/03/30 12:33:00;;;;;;;;;2.75;1.00;;;;;;;;5048039;28;8846;-75
2023/03/30 12:35:57;;;;;;;;;1.25;1.25;;;;;;;;5047815;28;9453;-78
2023/03/30 12:38:26;;;;;;;;;3.50;1.00;;;;;;;;5038942;28;8855;-76
2023/03/30 12:41:02;;;;;;;;;2.00;2.00;;;;;;;;5048523;28;8823;-75
2023/03/30 12:43:34;;;;;;;;;2.50;2.00;;;;;;;;5048100;28;8855;-77
2023/03/30 12:46:08;;;;;;;;;1.25;1.00;;;;;;;;5047878;28;9590;-76
2023/03/30 12:48:45;;;;;;;;;1.75;1.00;;;;;;;;5047895;28;8897;-75
2023/03/30 12:51:26;;;;;;;;;2.00;2.00;;;;;;;;5035449;28;8831;-75
2023/03/30 12:54:30;;;;;;;;;1.50;1.00;;;;;;;;5047830;28;8834;-75
2023/03/30 12:57:01;;;;;;;;;2.25;2.25;;;;;;;;5026145;28;8847;-77
2023/03/30 12:59:50;;;;;;;;;3.75;2.00;;;;;;;;5049148;28;8932;-75
2023/03/30 13:02:46;;;;;;;;;5.25;1.50;;;;;;;;5048677;28;8811;-75
2023/03/30 13:05:26;;;;;;;;;2.00;2.00;;;;;;;;5046402;28;8862;-74
2023/03/30 13:07:56;;;;;;;;;1.75;1.75;;;;;;;;5040407;28;8854;-76
2023/03/30 13:10:44;;;;;;;;;1.00;1.00;;;;;;;;5047043;28;8883;-77
2023/03/30 13:13:21;;;;;;;;;1.00;1.00;;;;;;;;5041364;28;8866;-78
2023/03/30 13:15:51;;;;;;;;;1.00;1.00;;;;;;;;5047090;28;8861;-79
2023/03/30 13:18:34;;;;;;;;;2.00;2.00;;;;;;;;5046967;28;8863;-75
2023/03/30 13:21:17;;;;;;;;;1.00;1.00;;;;;;;;5046626;28;8916;-75
2023/03/30 13:24:00;;;;;;;;;1.00;1.00;;;;;;;;5032309;28;8859;-76
2023/03/30 13:26:28;;;;;;;;;1.00;1.00;;;;;;;;5044080;28;8977;-80
2023/03/30 13:29:03;;;;;;;;;1.00;1.00;;;;;;;;5046941;28;8882;-76
2023/03/30 13:31:55;;;;;;;;;1.00;1.00;;;;;;;;5045449;28;9582;-74
2023/03/30 13:34:35;;;;;;;;;1.50;1.50;;;;;;;;5042134;28;8847;-77
2023/03/30 13:37:10;;;;;;;;;3.75;1.75;;;;;;;;5046977;28;8851;-77
2023/03/30 13:39:43;;;;;;;;;3.00;2.00;;;;;;;;5046715;28;8867;-76
2023/03/30 13:42:42;;;;;;;;;2.25;2.00;;;;;;;;5046045;28;8843;-77
2023/03/30 13:45:18;;;;;;;;;0.00;0.00;;;;;;;;5042029;28;8861;-74
2023/03/30 13:47:57;;;;;;;;;4.00;2.50;;;;;;;;5047305;28;8880;-76
2023/03/30 13:50:27;;;;;;;;;2.25;1.25;;;;;;;;5046777;28;8957;-77
2023/03/30 13:52:56;;;;;;;;;4.50;1.25;;;;;;;;5047370;28;8869;-77
2023/03/30 13:55:28;;;;;;;;;2.75;1.00;;;;;;;;5046139;28;8854;-77
2023/03/30 13:58:01;;;;;;;;;1.50;0.00;;;;;;;;5047319;28;8851;-77
2023/03/30 14:00:42;;;;;;;;;2.50;2.00;;;;;;;;5043743;28;8877;-77
2023/03/30 14:03:36;;;;;;;;;1.00;1.00;;;;;;;;5046567;28;8861;-74
2023/03/30 14:06:06;;;;;;;;;1.00;1.00;;;;;;;;5039177;28;8892;-76
2023/03/30 14:08:35;;;;;;;;;0.50;0.50;;;;;;;;5047474;28;8880;-76
2023/03/30 14:11:14;;;;;;;;;3.00;1.00;;;;;;;;5050833;28;8882;-75
2023/03/30 14:13:43;;;;;;;;;0.00;0.00;;;;;;;;5049689;28;9730;-76
2023/03/30 14:16:15;;;;;;;;;1.00;1.00;;;;;;;;5050608;28;8896;-77
2023/03/30 14:18:43;;;;;;;;;3.25;2.00;;;;;;;;5050564;28;8859;-77
2023/03/30 14:21:15;;;;;;;;;3.75;1.00;;;;;;;;5049960;28;8842;-75
2023/03/30 14:23:48;;;;;;;;;1.50;0.00;;;;;;;;5041290;28;9610;-76
2023/03/30 14:26:19;;;;;;;;;0.00;0.00;;;;;;;;5049967;28;8850;-77
2023/03/30 14:28:46;;;;;;;;;1.00;1.00;;;;;;;;5046764;28;8863;-76
2023/03/30 14:31:16;;;;;;;;;0.25;0.25;;;;;;;;5048832;28;9601;-77
2023/03/30 14:33:44;;;;;;;;;0.00;0.00;;;;;;;;5050027;28;8855;-73
2023/03/30 14:36:15;;;;;;;;;0.00;0.00;;;;;;;;5046514;28;9669;-74
2023/03/30 14:38:46;;;;;;;;;1.00;1.00;;;;;;;;5049666;28;9005;-77
2023/03/30 14:41:18;;;;;;;;;0.50;0.50;;;;;;;;5049941;28;8956;-76
2023/03/30 14:43:52;;;;;;;;;0.25;0.25;;;;;;;;5050034;28;8902;-76
2023/03/30 14:46:19;;;;;;;;;2.00;0.00;;;;;;;;5051013;28;8854;-76
2023/03/30 14:48:48;;;;;;;;;1.00;1.00;;;;;;;;5033342;28;8864;-77
2023/03/30 14:51:24;;;;;;;;;0.00;0.00;;;;;;;;5049556;28;8969;-76
2023/03/30 14:53:52;;;;;;;;;0.00;0.00;;;;;;;;5050066;28;8908;-76
2023/03/30 14:56:22;;;;;;;;;0.75;0.75;;;;;;;;5050062;28;8839;-75
2023/03/30 14:58:50;;;;;;;;;2.25;1.00;;;;;;;;5050693;28;8878;-76
2023/03/30 15:01:22;;;;;;;;;0.00;0.00;;;;;;;;5049155;28;8880;-75
2023/03/30 15:03:53;;;;;;;;;0.00;0.00;;;;;;;;5048277;28;8854;-76
2023/03/30 15:06:23;;;;;;;;;0.00;0.00;;;;;;;;5049599;28;8989;-76
2023/03/30 15:08:51;;;;;;;;;0.00;0.00;;;;;;;;5050217;28;8854;-76
2023/03/30 15:11:23;;;;;;;;;0.00;0.00;;;;;;;;5046660;28;8889;-75
2023/03/30 15:13:52;;;;;;;;;0.00;0.00;;;;;;;;5048273;28;8857;-77
2023/03/30 15:16:23;;;;;;;;;0.00;0.00;;;;;;;;5050683;28;8842;-76
2023/03/30 15:18:51;;;;;;;;;0.00;0.00;;;;;;;;5047008;28;8885;-76
2023/03/30 15:21:19;;;;;;;;;0.00;0.00;;;;;;;;5048384;28;9467;-88
2023/03/30 15:23:48;;;;;;;;;0.00;0.00;;;;;;;;5046931;28;8870;-78
2023/03/30 15:26:18;;;;;;;;;0.00;0.00;;;;;;;;5044146;28;8885;-76